sensor_id;sensor_type;location;lat;lon;timestamp;P1;durP1;ratioP1;P2;durP2;ratioP2
61477;SDS011;47345;52.334;10.392;2023-03-01T00:00:33;5.70;;;4.30;;
61477;SDS011;47345;52.334;10.392;2023-03-01T00:03:04;4.40;;;3.40;;
61477;SDS011;47345;52.334;10.392;2023-03-01T00:05:34;5.00;;;3.90;;
61477;SDS011;47345;52.334;10.392;2023-03-01T00:08:05;7.10;;;4.50;;
61477;SDS011;47345;52.334;10.392;2023-03-01T00:10:35;5.80;;;4.10;;
61477;SDS011;47345;52.334;10.392;2023-03-01T00:13:06;3.90;;;3.30;;
61477;SDS011;47345;52.334;10.392;2023-03-01T00:15:39;7.60;;;4.90;;
61477;SDS011;47345;52.334;10.392;2023-03-01T00:18:09;5.70;;;4.20;;
61477;SDS011;47345;52.334;10.392;2023-03-01T00:20:40;5.50;;;4.10;;
61477;SDS011;47345;52.334;10.392;2023-03-01T00:23:10;8.30;;;5.20;;
61477;SDS011;47345;52.334;10.392;2023-03-01T00:25:42;7.00;;;5.10;;
61477;SDS011;47345;52.334;10.392;2023-03-01T00:28:13;4.90;;;3.50;;
61477;SDS011;47345;52.334;10.392;2023-03-01T00:30:44;5.60;;;4.30;;
61477;SDS011;47345;52.334;10.392;2023-03-01T00:33:15;6.30;;;4.60;;
61477;SDS011;47345;52.334;10.392;2023-03-01T00:35:46;6.60;;;5.10;;
61477;SDS011;47345;52.334;10.392;2023-03-01T00:38:16;6.00;;;4.40;;
61477;SDS011;47345;52.334;10.392;2023-03-01T00:40:47;7.80;;;4.80;;
61477;SDS011;47345;52.334;10.392;2023-03-01T00:43:17;5.90;;;4.50;;
61477;SDS011;47345;52.334;10.392;2023-03-01T00:45:48;5.70;;;4.40;;
61477;SDS011;47345;52.334;10.392;2023-03-01T00:48:19;5.30;;;4.00;;
61477;SDS011;47345;52.334;10.392;2023-03-01T00:50:49;7.90;;;5.30;;
61477;SDS011;47345;52.334;10.392;2023-03-01T00:53:20;5.70;;;4.30;;
61477;SDS011;47345;52.334;10.392;2023-03-01T00:55:50;5.60;;;4.60;;
61477;SDS011;47345;52.334;10.392;2023-03-01T00:58:21;6.00;;;3.90;;
61477;SDS011;47345;52.334;10.392;2023-03-01T01:00:51;6.10;;;4.00;;
61477;SDS011;47345;52.334;10.392;2023-03-01T01:03:22;4.80;;;3.60;;
61477;SDS011;47345;52.334;10.392;2023-03-01T01:05:53;5.50;;;4.20;;
61477;SDS011;47345;52.334;10.392;2023-03-01T01:08:24;7.10;;;4.70;;
61477;SDS011;47345;52.334;10.392;2023-03-01T01:10:55;7.20;;;3.90;;
61477;SDS011;47345;52.334;10.392;2023-03-01T01:13:25;5.70;;;4.40;;
61477;SDS011;47345;52.334;10.392;2023-03-01T01:15:59;6.70;;;4.90;;
61477;SDS011;47345;52.334;10.392;2023-03-01T01:18:30;5.80;;;4.40;;
61477;SDS011;47345;52.334;10.392;2023-03-01T01:21:04;6.70;;;4.10;;
61477;SDS011;47345;52.334;10.392;2023-03-01T01:23:36;9.20;;;4.70;;
61477;SDS011;47345;52.334;10.392;2023-03-01T01:26:09;7.90;;;5.10;;
61477;SDS011;47345;52.334;10.392;2023-03-01T01:28:42;6.70;;;5.00;;
61477;SDS011;47345;52.334;10.392;2023-03-01T01:31:13;4.30;;;3.70;;
61477;SDS011;47345;52.334;10.392;2023-03-01T01:33:44;5.90;;;3.60;;
61477;SDS011;47345;52.334;10.392;2023-03-01T01:36:16;5.20;;;4.00;;
61477;SDS011;47345;52.334;10.392;2023-03-01T01:38:46;9.00;;;5.90;;
61477;SDS011;47345;52.334;10.392;2023-03-01T01:41:17;8.10;;;5.90;;
61477;SDS011;47345;52.334;10.392;2023-03-01T01:43:49;6.40;;;4.50;;
61477;SDS011;47345;52.334;10.392;2023-03-01T01:46:34;7.10;;;4.90;;
61477;SDS011;47345;52.334;10.392;2023-03-01T01:49:10;7.10;;;4.80;;
61477;SDS011;47345;52.334;10.392;2023-03-01T01:51:47;6.00;;;5.00;;
61477;SDS011;47345;52.334;10.392;2023-03-01T01:54:24;5.30;;;3.90;;
61477;SDS011;47345;52.334;10.392;2023-03-01T01:56:58;6.60;;;3.80;;
61477;SDS011;47345;52.334;10.392;2023-03-01T01:59:32;5.00;;;4.00;;
61477;SDS011;47345;52.334;10.392;2023-03-01T02:02:04;5.00;;;4.00;;
61477;SDS011;47345;52.334;10.392;2023-03-01T02:04:35;6.10;;;4.40;;
61477;SDS011;47345;52.334;10.392;2023-03-01T02:07:06;8.50;;;4.70;;
61477;SDS011;47345;52.334;10.392;2023-03-01T02:09:43;5.20;;;4.00;;
61477;SDS011;47345;52.334;10.392;2023-03-01T02:12:16;5.70;;;4.50;;
61477;SDS011;47345;52.334;10.392;2023-03-01T02:14:49;6.80;;;4.30;;
61477;SDS011;47345;52.334;10.392;2023-03-01T02:17:20;5.90;;;4.40;;
61477;SDS011;47345;52.334;10.392;2023-03-01T02:19:55;5.30;;;4.10;;
61477;SDS011;47345;52.334;10.392;2023-03-01T02:22:37;7.00;;;4.30;;
61477;SDS011;47345;52.334;10.392;2023-03-01T02:25:11;7.50;;;5.00;;
61477;SDS011;47345;52.334;10.392;2023-03-01T02:27:49;5.90;;;4.30;;
61477;SDS011;47345;52.334;10.392;2023-03-01T02:30:27;8.00;;;5.40;;
61477;SDS011;47345;52.334;10.392;2023-03-01T02:33:00;8.20;;;5.70;;
61477;SDS011;47345;52.334;10.392;2023-03-01T02:35:32;6.30;;;5.00;;
61477;SDS011;47345;52.334;10.392;2023-03-01T02:38:06;6.90;;;4.80;;
61477;SDS011;47345;52.334;10.392;2023-03-01T02:40:38;7.60;;;5.90;;
61477;SDS011;47345;52.334;10.392;2023-03-01T02:43:10;5.90;;;3.90;;
61477;SDS011;47345;52.334;10.392;2023-03-01T02:45:47;9.20;;;6.10;;
61477;SDS011;47345;52.334;10.392;2023-03-01T02:48:19;10.10;;;7.00;;
61477;SDS011;47345;52.334;10.392;2023-03-01T02:51:01;7.20;;;5.20;;
61477;SDS011;47345;52.334;10.392;2023-03-01T02:53:39;10.40;;;6.30;;
61477;SDS011;47345;52.334;10.392;2023-03-01T02:56:16;9.80;;;6.30;;
61477;SDS011;47345;52.334;10.392;2023-03-01T02:58:47;8.90;;;5.60;;
61477;SDS011;47345;52.334;10.392;2023-03-01T03:01:19;9.00;;;5.60;;
61477;SDS011;47345;52.334;10.392;2023-03-01T03:03:50;9.50;;;6.30;;
61477;SDS011;47345;52.334;10.392;2023-03-01T03:06:20;6.80;;;5.30;;
61477;SDS011;47345;52.334;10.392;2023-03-01T03:08:51;8.20;;;5.90;;
61477;SDS011;47345;52.334;10.392;2023-03-01T03:11:21;7.30;;;5.30;;
61477;SDS011;47345;52.334;10.392;2023-03-01T03:13:52;9.40;;;5.90;;
61477;SDS011;47345;52.334;10.392;2023-03-01T03:16:23;7.60;;;5.40;;
61477;SDS011;47345;52.334;10.392;2023-03-01T03:18:53;12.80;;;6.10;;
61477;SDS011;47345;52.334;10.392;2023-03-01T03:21:32;6.70;;;5.10;;
61477;SDS011;47345;52.334;10.392;2023-03-01T03:24:03;6.70;;;4.80;;
61477;SDS011;47345;52.334;10.392;2023-03-01T03:26:34;4.70;;;3.70;;
61477;SDS011;47345;52.334;10.392;2023-03-01T03:29:05;6.60;;;4.40;;
61477;SDS011;47345;52.334;10.392;2023-03-01T03:31:35;5.90;;;4.80;;
61477;SDS011;47345;52.334;10.392;2023-03-01T03:34:05;6.60;;;4.50;;
61477;SDS011;47345;52.334;10.392;2023-03-01T03:36:38;5.90;;;4.70;;
61477;SDS011;47345;52.334;10.392;2023-03-01T03:39:08;8.30;;;5.50;;
61477;SDS011;47345;52.334;10.392;2023-03-01T03:41:39;5.00;;;4.10;;
61477;SDS011;47345;52.334;10.392;2023-03-01T03:44:09;7.50;;;5.50;;
61477;SDS011;47345;52.334;10.392;2023-03-01T03:46:39;6.80;;;4.50;;
61477;SDS011;47345;52.334;10.392;2023-03-01T03:49:09;6.70;;;4.90;;
61477;SDS011;47345;52.334;10.392;2023-03-01T03:51:40;5.70;;;4.30;;
61477;SDS011;47345;52.334;10.392;2023-03-01T03:54:10;7.60;;;4.80;;
61477;SDS011;47345;52.334;10.392;2023-03-01T03:56:40;6.60;;;4.70;;
61477;SDS011;47345;52.334;10.392;2023-03-01T03:59:11;6.00;;;4.80;;
61477;SDS011;47345;52.334;10.392;2023-03-01T04:01:42;4.80;;;3.80;;
61477;SDS011;47345;52.334;10.392;2023-03-01T04:04:12;5.60;;;4.30;;
61477;SDS011;47345;52.334;10.392;2023-03-01T04:06:46;7.30;;;4.50;;
61477;SDS011;47345;52.334;10.392;2023-03-01T04:09:17;5.60;;;4.20;;
61477;SDS011;47345;52.334;10.392;2023-03-01T04:11:47;7.40;;;5.10;;
61477;SDS011;47345;52.334;10.392;2023-03-01T04:14:17;4.90;;;4.20;;
61477;SDS011;47345;52.334;10.392;2023-03-01T04:16:48;7.40;;;4.70;;
61477;SDS011;47345;52.334;10.392;2023-03-01T04:19:18;9.00;;;5.40;;
61477;SDS011;47345;52.334;10.392;2023-03-01T04:21:48;8.30;;;4.70;;
61477;SDS011;47345;52.334;10.392;2023-03-01T04:24:19;5.60;;;4.40;;
61477;SDS011;47345;52.334;10.392;2023-03-01T04:26:50;6.40;;;4.10;;
61477;SDS011;47345;52.334;10.392;2023-03-01T04:29:21;4.50;;;4.10;;
61477;SDS011;47345;52.334;10.392;2023-03-01T04:31:51;8.40;;;5.80;;
61477;SDS011;47345;52.334;10.392;2023-03-01T04:34:22;8.00;;;5.40;;
61477;SDS011;47345;52.334;10.392;2023-03-01T04:36:54;6.00;;;4.20;;
61477;SDS011;47345;52.334;10.392;2023-03-01T04:39:24;8.40;;;5.20;;
61477;SDS011;47345;52.334;10.392;2023-03-01T04:41:55;6.20;;;4.70;;
61477;SDS011;47345;52.334;10.392;2023-03-01T04:44:26;6.20;;;4.50;;
61477;SDS011;47345;52.334;10.392;2023-03-01T04:46:56;13.20;;;4.80;;
61477;SDS011;47345;52.334;10.392;2023-03-01T04:49:27;7.80;;;5.50;;
61477;SDS011;47345;52.334;10.392;2023-03-01T04:51:58;6.50;;;4.90;;
61477;SDS011;47345;52.334;10.392;2023-03-01T04:54:29;4.80;;;4.20;;
61477;SDS011;47345;52.334;10.392;2023-03-01T04:57:01;9.30;;;4.80;;
61477;SDS011;47345;52.334;10.392;2023-03-01T04:59:32;6.40;;;5.20;;
61477;SDS011;47345;52.334;10.392;2023-03-01T05:02:03;8.30;;;5.80;;
61477;SDS011;47345;52.334;10.392;2023-03-01T05:04:34;8.20;;;4.80;;
61477;SDS011;47345;52.334;10.392;2023-03-01T05:07:04;6.60;;;4.00;;
61477;SDS011;47345;52.334;10.392;2023-03-01T05:09:34;7.60;;;5.40;;
61477;SDS011;47345;52.334;10.392;2023-03-01T05:12:06;4.50;;;3.50;;
61477;SDS011;47345;52.334;10.392;2023-03-01T05:14:37;7.70;;;4.80;;
61477;SDS011;47345;52.334;10.392;2023-03-01T05:17:07;6.80;;;5.00;;
61477;SDS011;47345;52.334;10.392;2023-03-01T05:19:38;6.20;;;4.50;;
61477;SDS011;47345;52.334;10.392;2023-03-01T05:22:10;9.10;;;6.20;;
61477;SDS011;47345;52.334;10.392;2023-03-01T05:24:40;6.70;;;4.70;;
61477;SDS011;47345;52.334;10.392;2023-03-01T05:27:11;7.30;;;4.60;;
61477;SDS011;47345;52.334;10.392;2023-03-01T05:29:42;5.70;;;4.20;;
61477;SDS011;47345;52.334;10.392;2023-03-01T05:32:13;6.90;;;5.00;;
61477;SDS011;47345;52.334;10.392;2023-03-01T05:34:43;7.00;;;4.80;;
61477;SDS011;47345;52.334;10.392;2023-03-01T05:37:14;7.00;;;4.80;;
61477;SDS011;47345;52.334;10.392;2023-03-01T05:39:45;6.90;;;4.20;;
61477;SDS011;47345;52.334;10.392;2023-03-01T05:42:17;5.60;;;4.90;;
61477;SDS011;47345;52.334;10.392;2023-03-01T05:44:48;7.80;;;5.30;;
61477;SDS011;47345;52.334;10.392;2023-03-01T05:47:18;9.70;;;6.40;;
61477;SDS011;47345;52.334;10.392;2023-03-01T05:49:49;13.90;;;8.40;;
61477;SDS011;47345;52.334;10.392;2023-03-01T05:52:19;14.70;;;8.30;;
61477;SDS011;47345;52.334;10.392;2023-03-01T05:54:50;13.30;;;9.50;;
61477;SDS011;47345;52.334;10.392;2023-03-01T05:57:21;16.70;;;10.10;;
61477;SDS011;47345;52.334;10.392;2023-03-01T05:59:51;13.80;;;8.80;;
61477;SDS011;47345;52.334;10.392;2023-03-01T06:02:22;8.90;;;5.80;;
61477;SDS011;47345;52.334;10.392;2023-03-01T06:04:52;7.00;;;5.00;;
61477;SDS011;47345;52.334;10.392;2023-03-01T06:07:23;6.70;;;4.90;;
61477;SDS011;47345;52.334;10.392;2023-03-01T06:09:54;8.50;;;5.00;;
61477;SDS011;47345;52.334;10.392;2023-03-01T06:12:24;7.30;;;4.80;;
61477;SDS011;47345;52.334;10.392;2023-03-01T06:14:54;8.50;;;4.90;;
61477;SDS011;47345;52.334;10.392;2023-03-01T06:17:25;7.70;;;4.70;;
61477;SDS011;47345;52.334;10.392;2023-03-01T06:19:57;7.70;;;5.00;;
61477;SDS011;47345;52.334;10.392;2023-03-01T06:22:29;9.60;;;4.80;;
61477;SDS011;47345;52.334;10.392;2023-03-01T06:24:59;5.80;;;4.00;;
61477;SDS011;47345;52.334;10.392;2023-03-01T06:27:30;4.60;;;3.70;;
61477;SDS011;47345;52.334;10.392;2023-03-01T06:30:01;7.00;;;4.60;;
61477;SDS011;47345;52.334;10.392;2023-03-01T06:32:32;5.70;;;4.60;;
61477;SDS011;47345;52.334;10.392;2023-03-01T06:35:03;7.80;;;5.00;;
61477;SDS011;47345;52.334;10.392;2023-03-01T06:37:34;5.00;;;3.80;;
61477;SDS011;47345;52.334;10.392;2023-03-01T06:40:05;5.10;;;4.10;;
61477;SDS011;47345;52.334;10.392;2023-03-01T06:42:40;9.20;;;5.90;;
61477;SDS011;47345;52.334;10.392;2023-03-01T06:45:12;6.80;;;5.40;;
61477;SDS011;47345;52.334;10.392;2023-03-01T06:47:43;9.00;;;5.10;;
61477;SDS011;47345;52.334;10.392;2023-03-01T06:50:13;6.50;;;4.70;;
61477;SDS011;47345;52.334;10.392;2023-03-01T06:52:45;6.30;;;4.90;;
61477;SDS011;47345;52.334;10.392;2023-03-01T06:55:16;5.20;;;4.10;;
61477;SDS011;47345;52.334;10.392;2023-03-01T06:57:46;6.30;;;5.00;;
61477;SDS011;47345;52.334;10.392;2023-03-01T07:00:17;6.50;;;5.10;;
61477;SDS011;47345;52.334;10.392;2023-03-01T07:02:48;6.20;;;4.20;;
61477;SDS011;47345;52.334;10.392;2023-03-01T07:05:20;8.10;;;4.60;;
61477;SDS011;47345;52.334;10.392;2023-03-01T07:07:50;5.20;;;4.50;;
61477;SDS011;47345;52.334;10.392;2023-03-01T07:10:21;5.80;;;4.20;;
61477;SDS011;47345;52.334;10.392;2023-03-01T07:12:53;5.00;;;4.20;;
61477;SDS011;47345;52.334;10.392;2023-03-01T07:15:25;5.70;;;4.70;;
61477;SDS011;47345;52.334;10.392;2023-03-01T07:17:57;7.90;;;5.40;;
61477;SDS011;47345;52.334;10.392;2023-03-01T07:20:27;7.60;;;4.90;;
61477;SDS011;47345;52.334;10.392;2023-03-01T07:22:58;7.80;;;5.30;;
61477;SDS011;47345;52.334;10.392;2023-03-01T07:25:28;7.80;;;5.20;;
61477;SDS011;47345;52.334;10.392;2023-03-01T07:27:59;6.50;;;4.30;;
61477;SDS011;47345;52.334;10.392;2023-03-01T07:30:30;6.70;;;4.90;;
61477;SDS011;47345;52.334;10.392;2023-03-01T07:33:00;8.10;;;5.30;;
61477;SDS011;47345;52.334;10.392;2023-03-01T07:35:31;6.50;;;5.50;;
61477;SDS011;47345;52.334;10.392;2023-03-01T07:38:01;8.30;;;5.60;;
61477;SDS011;47345;52.334;10.392;2023-03-01T07:40:32;7.00;;;5.00;;
61477;SDS011;47345;52.334;10.392;2023-03-01T07:43:03;7.00;;;5.20;;
61477;SDS011;47345;52.334;10.392;2023-03-01T07:45:33;8.50;;;6.00;;
61477;SDS011;47345;52.334;10.392;2023-03-01T07:48:04;7.20;;;5.20;;
61477;SDS011;47345;52.334;10.392;2023-03-01T07:50:35;12.00;;;5.80;;
61477;SDS011;47345;52.334;10.392;2023-03-01T07:53:05;8.30;;;5.50;;
61477;SDS011;47345;52.334;10.392;2023-03-01T07:55:36;7.50;;;5.40;;
61477;SDS011;47345;52.334;10.392;2023-03-01T07:58:07;7.70;;;5.00;;
61477;SDS011;47345;52.334;10.392;2023-03-01T08:00:38;6.30;;;4.90;;
61477;SDS011;47345;52.334;10.392;2023-03-01T08:03:09;7.60;;;4.10;;
61477;SDS011;47345;52.334;10.392;2023-03-01T08:05:40;6.60;;;4.90;;
61477;SDS011;47345;52.334;10.392;2023-03-01T08:08:11;7.00;;;4.70;;
61477;SDS011;47345;52.334;10.392;2023-03-01T08:10:41;8.40;;;6.00;;
61477;SDS011;47345;52.334;10.392;2023-03-01T08:13:12;7.80;;;5.20;;
61477;SDS011;47345;52.334;10.392;2023-03-01T08:15:42;5.90;;;4.60;;
61477;SDS011;47345;52.334;10.392;2023-03-01T08:18:13;8.30;;;4.70;;
61477;SDS011;47345;52.334;10.392;2023-03-01T08:20:43;9.10;;;5.60;;
61477;SDS011;47345;52.334;10.392;2023-03-01T08:23:14;8.20;;;5.70;;
61477;SDS011;47345;52.334;10.392;2023-03-01T08:25:45;9.00;;;5.20;;
61477;SDS011;47345;52.334;10.392;2023-03-01T08:28:15;6.50;;;4.80;;
61477;SDS011;47345;52.334;10.392;2023-03-01T08:30:46;5.00;;;4.30;;
61477;SDS011;47345;52.334;10.392;2023-03-01T08:33:16;5.50;;;4.90;;
61477;SDS011;47345;52.334;10.392;2023-03-01T08:35:47;9.50;;;5.50;;
61477;SDS011;47345;52.334;10.392;2023-03-01T08:38:18;7.10;;;4.50;;
61477;SDS011;47345;52.334;10.392;2023-03-01T08:40:48;6.90;;;5.10;;
61477;SDS011;47345;52.334;10.392;2023-03-01T08:43:19;7.70;;;4.90;;
61477;SDS011;47345;52.334;10.392;2023-03-01T08:45:53;5.90;;;4.90;;
61477;SDS011;47345;52.334;10.392;2023-03-01T08:48:24;7.90;;;5.50;;
61477;SDS011;47345;52.334;10.392;2023-03-01T08:50:56;6.80;;;5.40;;
61477;SDS011;47345;52.334;10.392;2023-03-01T08:53:35;10.80;;;5.60;;
61477;SDS011;47345;52.334;10.392;2023-03-01T08:56:07;11.70;;;6.40;;
61477;SDS011;47345;52.334;10.392;2023-03-01T08:58:38;8.10;;;5.40;;
61477;SDS011;47345;52.334;10.392;2023-03-01T09:01:13;10.90;;;5.70;;
61477;SDS011;47345;52.334;10.392;2023-03-01T09:03:45;8.20;;;6.00;;
61477;SDS011;47345;52.334;10.392;2023-03-01T09:06:16;6.20;;;4.70;;
61477;SDS011;47345;52.334;10.392;2023-03-01T09:08:47;6.60;;;4.60;;
61477;SDS011;47345;52.334;10.392;2023-03-01T09:11:20;6.40;;;5.00;;
61477;SDS011;47345;52.334;10.392;2023-03-01T09:13:51;7.00;;;4.60;;
61477;SDS011;47345;52.334;10.392;2023-03-01T09:16:21;8.20;;;4.80;;
61477;SDS011;47345;52.334;10.392;2023-03-01T09:18:53;5.20;;;4.00;;
61477;SDS011;47345;52.334;10.392;2023-03-01T09:21:24;7.60;;;4.90;;
61477;SDS011;47345;52.334;10.392;2023-03-01T09:24:08;6.50;;;4.40;;
61477;SDS011;47345;52.334;10.392;2023-03-01T09:26:43;5.70;;;4.20;;
61477;SDS011;47345;52.334;10.392;2023-03-01T09:29:16;8.50;;;4.20;;
61477;SDS011;47345;52.334;10.392;2023-03-01T09:31:46;6.20;;;4.20;;
61477;SDS011;47345;52.334;10.392;2023-03-01T09:34:17;8.60;;;4.70;;
61477;SDS011;47345;52.334;10.392;2023-03-01T09:36:50;4.70;;;3.70;;
61477;SDS011;47345;52.334;10.392;2023-03-01T09:39:21;5.70;;;4.00;;
61477;SDS011;47345;52.334;10.392;2023-03-01T09:41:54;7.00;;;4.20;;
61477;SDS011;47345;52.334;10.392;2023-03-01T09:44:31;5.60;;;3.90;;
61477;SDS011;47345;52.334;10.392;2023-03-01T09:47:05;5.50;;;4.00;;
61477;SDS011;47345;52.334;10.392;2023-03-01T09:49:39;5.40;;;3.60;;
61477;SDS011;47345;52.334;10.392;2023-03-01T09:52:19;5.50;;;3.90;;
61477;SDS011;47345;52.334;10.392;2023-03-01T09:54:54;7.40;;;4.10;;
61477;SDS011;47345;52.334;10.392;2023-03-01T09:57:28;4.70;;;3.70;;
61477;SDS011;47345;52.334;10.392;2023-03-01T10:00:10;5.10;;;3.60;;
61477;SDS011;47345;52.334;10.392;2023-03-01T10:03:00;3.80;;;3.10;;
61477;SDS011;47345;52.334;10.392;2023-03-01T10:05:43;5.80;;;3.40;;
61477;SDS011;47345;52.334;10.392;2023-03-01T10:08:33;5.40;;;3.00;;
61477;SDS011;47345;52.334;10.392;2023-03-01T10:11:16;4.60;;;3.40;;
61477;SDS011;47345;52.334;10.392;2023-03-01T10:13:54;5.10;;;3.80;;
61477;SDS011;47345;52.334;10.392;2023-03-01T10:16:28;4.00;;;2.90;;
61477;SDS011;47345;52.334;10.392;2023-03-01T10:19:09;4.50;;;3.00;;
61477;SDS011;47345;52.334;10.392;2023-03-01T10:21:45;5.40;;;3.00;;
61477;SDS011;47345;52.334;10.392;2023-03-01T10:24:18;3.80;;;3.00;;
61477;SDS011;47345;52.334;10.392;2023-03-01T10:26:53;3.90;;;3.30;;
61477;SDS011;47345;52.334;10.392;2023-03-01T10:29:26;4.20;;;3.10;;
61477;SDS011;47345;52.334;10.392;2023-03-01T10:32:02;5.20;;;3.30;;
61477;SDS011;47345;52.334;10.392;2023-03-01T10:34:35;5.00;;;3.40;;
61477;SDS011;47345;52.334;10.392;2023-03-01T10:37:10;4.90;;;3.00;;
61477;SDS011;47345;52.334;10.392;2023-03-01T10:39:56;6.50;;;3.90;;
61477;SDS011;47345;52.334;10.392;2023-03-01T10:42:31;7.20;;;3.10;;
61477;SDS011;47345;52.334;10.392;2023-03-01T10:48:05;3.30;;;2.90;;
61477;SDS011;47345;52.334;10.392;2023-03-01T10:50:41;5.50;;;2.70;;
61477;SDS011;47345;52.334;10.392;2023-03-01T10:53:26;5.10;;;3.40;;
61477;SDS011;47345;52.334;10.392;2023-03-01T10:56:01;4.60;;;2.60;;
61477;SDS011;47345;52.334;10.392;2023-03-01T10:58:34;7.40;;;3.10;;
61477;SDS011;47345;52.334;10.392;2023-03-01T11:01:06;4.20;;;3.00;;
61477;SDS011;47345;52.334;10.392;2023-03-01T11:04:09;5.20;;;3.50;;
61477;SDS011;47345;52.334;10.392;2023-03-01T11:06:42;6.00;;;2.70;;
61477;SDS011;47345;52.334;10.392;2023-03-01T11:09:26;4.50;;;3.20;;
61477;SDS011;47345;52.334;10.392;2023-03-01T11:12:11;4.30;;;3.00;;
61477;SDS011;47345;52.334;10.392;2023-03-01T11:14:47;5.00;;;2.70;;
61477;SDS011;47345;52.334;10.392;2023-03-01T11:17:21;4.90;;;2.80;;
61477;SDS011;47345;52.334;10.392;2023-03-01T11:20:05;3.50;;;2.70;;
61477;SDS011;47345;52.334;10.392;2023-03-01T11:22:56;3.60;;;2.90;;
61477;SDS011;47345;52.334;10.392;2023-03-01T11:25:30;4.20;;;2.80;;
61477;SDS011;47345;52.334;10.392;2023-03-01T11:28:05;2.60;;;2.40;;
61477;SDS011;47345;52.334;10.392;2023-03-01T11:30:41;3.90;;;2.90;;
61477;SDS011;47345;52.334;10.392;2023-03-01T11:33:37;12.50;;;6.60;;
61477;SDS011;47345;52.334;10.392;2023-03-01T11:36:15;5.20;;;3.10;;
61477;SDS011;47345;52.334;10.392;2023-03-01T11:38:51;6.90;;;2.90;;
61477;SDS011;47345;52.334;10.392;2023-03-01T11:41:25;3.60;;;2.70;;
61477;SDS011;47345;52.334;10.392;2023-03-01T11:43:59;3.60;;;2.70;;
61477;SDS011;47345;52.334;10.392;2023-03-01T11:46:41;4.80;;;2.80;;
61477;SDS011;47345;52.334;10.392;2023-03-01T11:49:34;5.70;;;2.70;;
61477;SDS011;47345;52.334;10.392;2023-03-01T11:52:20;5.00;;;2.90;;
61477;SDS011;47345;52.334;10.392;2023-03-01T11:55:04;4.50;;;2.70;;
61477;SDS011;47345;52.334;10.392;2023-03-01T11:57:49;3.20;;;2.60;;
61477;SDS011;47345;52.334;10.392;2023-03-01T12:00:38;4.00;;;3.00;;
61477;SDS011;47345;52.334;10.392;2023-03-01T12:03:24;4.50;;;3.00;;
61477;SDS011;47345;52.334;10.392;2023-03-01T12:06:04;4.60;;;2.80;;
61477;SDS011;47345;52.334;10.392;2023-03-01T12:08:53;3.70;;;2.70;;
61477;SDS011;47345;52.334;10.392;2023-03-01T12:11:41;3.30;;;2.60;;
61477;SDS011;47345;52.334;10.392;2023-03-01T12:14:28;4.60;;;3.20;;
61477;SDS011;47345;52.334;10.392;2023-03-01T12:17:18;4.20;;;2.90;;
61477;SDS011;47345;52.334;10.392;2023-03-01T12:20:09;3.10;;;2.80;;
61477;SDS011;47345;52.334;10.392;2023-03-01T12:22:55;3.50;;;2.30;;
61477;SDS011;47345;52.334;10.392;2023-03-01T12:25:48;3.40;;;2.50;;
61477;SDS011;47345;52.334;10.392;2023-03-01T12:28:27;4.10;;;2.70;;
61477;SDS011;47345;52.334;10.392;2023-03-01T12:34:18;5.60;;;3.30;;
61477;SDS011;47345;52.334;10.392;2023-03-01T12:37:05;2.70;;;2.50;;
61477;SDS011;47345;52.334;10.392;2023-03-01T12:39:49;3.80;;;2.60;;
61477;SDS011;47345;52.334;10.392;2023-03-01T12:42:30;3.40;;;2.70;;
61477;SDS011;47345;52.334;10.392;2023-03-01T12:48:07;5.00;;;3.40;;
61477;SDS011;47345;52.334;10.392;2023-03-01T12:50:47;3.60;;;2.60;;
61477;SDS011;47345;52.334;10.392;2023-03-01T12:53:24;3.20;;;2.50;;
61477;SDS011;47345;52.334;10.392;2023-03-01T12:55:58;2.40;;;2.20;;
61477;SDS011;47345;52.334;10.392;2023-03-01T12:58:34;3.30;;;2.40;;
61477;SDS011;47345;52.334;10.392;2023-03-01T13:01:19;3.20;;;2.90;;
61477;SDS011;47345;52.334;10.392;2023-03-01T13:04:01;5.30;;;2.70;;
61477;SDS011;47345;52.334;10.392;2023-03-01T13:06:43;5.50;;;2.80;;
61477;SDS011;47345;52.334;10.392;2023-03-01T13:09:26;4.30;;;2.50;;
61477;SDS011;47345;52.334;10.392;2023-03-01T13:12:00;3.50;;;2.20;;
61477;SDS011;47345;52.334;10.392;2023-03-01T13:14:46;2.50;;;2.30;;
61477;SDS011;47345;52.334;10.392;2023-03-01T13:17:33;2.70;;;2.40;;
61477;SDS011;47345;52.334;10.392;2023-03-01T13:20:15;3.70;;;2.70;;
61477;SDS011;47345;52.334;10.392;2023-03-01T13:22:48;3.70;;;2.90;;
61477;SDS011;47345;52.334;10.392;2023-03-01T13:25:31;3.50;;;2.60;;
61477;SDS011;47345;52.334;10.392;2023-03-01T13:31:09;2.60;;;2.30;;
61477;SDS011;47345;52.334;10.392;2023-03-01T13:34:00;2.50;;;2.20;;
61477;SDS011;47345;52.334;10.392;2023-03-01T13:39:40;3.20;;;2.30;;
61477;SDS011;47345;52.334;10.392;2023-03-01T13:42:31;2.90;;;2.60;;
61477;SDS011;47345;52.334;10.392;2023-03-01T13:45:12;3.10;;;2.60;;
61477;SDS011;47345;52.334;10.392;2023-03-01T13:47:51;3.10;;;2.50;;
61477;SDS011;47345;52.334;10.392;2023-03-01T13:50:27;4.10;;;2.60;;
61477;SDS011;47345;52.334;10.392;2023-03-01T13:53:03;3.00;;;2.50;;
61477;SDS011;47345;52.334;10.392;2023-03-01T13:55:38;2.80;;;2.20;;
61477;SDS011;47345;52.334;10.392;2023-03-01T13:58:18;4.00;;;2.30;;
61477;SDS011;47345;52.334;10.392;2023-03-01T14:00:59;3.20;;;2.40;;
61477;SDS011;47345;52.334;10.392;2023-03-01T14:03:32;3.70;;;2.60;;
61477;SDS011;47345;52.334;10.392;2023-03-01T14:06:12;2.70;;;2.30;;
61477;SDS011;47345;52.334;10.392;2023-03-01T14:08:48;4.30;;;2.90;;
61477;SDS011;47345;52.334;10.392;2023-03-01T14:14:48;11.20;;;4.50;;
61477;SDS011;47345;52.334;10.392;2023-03-01T14:20:25;4.80;;;3.30;;
61477;SDS011;47345;52.334;10.392;2023-03-01T14:22:58;3.90;;;2.50;;
61477;SDS011;47345;52.334;10.392;2023-03-01T14:25:31;3.50;;;2.40;;
61477;SDS011;47345;52.334;10.392;2023-03-01T14:28:04;3.30;;;2.60;;
61477;SDS011;47345;52.334;10.392;2023-03-01T14:30:44;3.20;;;2.60;;
61477;SDS011;47345;52.334;10.392;2023-03-01T14:33:20;5.20;;;2.90;;
61477;SDS011;47345;52.334;10.392;2023-03-01T14:35:53;2.00;;;1.90;;
61477;SDS011;47345;52.334;10.392;2023-03-01T14:38:31;3.30;;;2.50;;
61477;SDS011;47345;52.334;10.392;2023-03-01T14:41:04;4.50;;;2.60;;
61477;SDS011;47345;52.334;10.392;2023-03-01T14:43:38;3.30;;;2.60;;
61477;SDS011;47345;52.334;10.392;2023-03-01T14:46:18;5.60;;;3.30;;
61477;SDS011;47345;52.334;10.392;2023-03-01T14:48:51;6.20;;;3.90;;
61477;SDS011;47345;52.334;10.392;2023-03-01T14:51:25;3.30;;;2.50;;
61477;SDS011;47345;52.334;10.392;2023-03-01T14:53:56;3.30;;;2.30;;
61477;SDS011;47345;52.334;10.392;2023-03-01T14:56:26;2.70;;;2.30;;
61477;SDS011;47345;52.334;10.392;2023-03-01T14:59:11;2.80;;;2.30;;
61477;SDS011;47345;52.334;10.392;2023-03-01T15:01:41;3.00;;;2.20;;
61477;SDS011;47345;52.334;10.392;2023-03-01T15:04:13;3.80;;;2.60;;
61477;SDS011;47345;52.334;10.392;2023-03-01T15:06:44;4.10;;;2.60;;
61477;SDS011;47345;52.334;10.392;2023-03-01T15:09:16;3.10;;;2.60;;
61477;SDS011;47345;52.334;10.392;2023-03-01T15:11:48;3.40;;;2.40;;
61477;SDS011;47345;52.334;10.392;2023-03-01T15:14:38;3.90;;;2.90;;
61477;SDS011;47345;52.334;10.392;2023-03-01T15:17:26;2.70;;;2.30;;
61477;SDS011;47345;52.334;10.392;2023-03-01T15:20:00;3.80;;;2.70;;
61477;SDS011;47345;52.334;10.392;2023-03-01T15:22:33;4.40;;;2.80;;
61477;SDS011;47345;52.334;10.392;2023-03-01T15:25:13;3.50;;;2.70;;
61477;SDS011;47345;52.334;10.392;2023-03-01T15:27:46;3.90;;;2.80;;
61477;SDS011;47345;52.334;10.392;2023-03-01T15:30:19;2.50;;;2.30;;
61477;SDS011;47345;52.334;10.392;2023-03-01T15:35:49;2.10;;;1.90;;
61477;SDS011;47345;52.334;10.392;2023-03-01T15:38:26;2.50;;;2.20;;